CheckWX is a tool to help pilots better visualize weather data.  It is not intended as a substitute for an official pre-flight weather briefing.

06:56:46 UTC

OEJN TAF
King Abdulaziz International Airport
Jeddah, Saudi Arabia
TAF OEJN 160500Z 1606/1712 34008G18KT 7000 FEW040 BECMG 1618/1620 02008KT

Jun-16@
06:00 UTC

Jun-16 @ 06:00 UTC

Jun-16@
18:00 UTC

Jun-16 @ 18:00 UTC

TAF OEJN 160500Z 1606/1712 34008G18KT 7000 FEW040
Wind
  • 340° at 8 KTS
  • {Gusting to 18 KTS
Cloud Levels
  • Few at 4,000' AGL

Jun-16@
18:00 UTC

Jun-16 @ 18:00 UTC

Jun-17@
12:00 UTC

Jun-17 @ 12:00 UTC

BECMG 1618/1620 02008KT

Becoming

Becoming Conditions expected by Sun, Jun 16, 2019 @ 20:00 UTC

Wind
  • 020° at 8 KTS
Cloud Levels
  • Few at 4,000' AGL